Terminal Aerodrome Forecast
Issued by NWS

Home | Current Version | Previous Version | Text Only | Print | Product List | Glossary On
Versions: 1 2 3 4 5 6 7 8 9 10 11 12 13 14 15
000
FTUS45 KLKN 221741
TAFEKO
TAF
KEKO 221741Z 2218/2318 VRB03KT P6SM VCFG SCT250
      TEMPO 2218/2219 1/2SM FG VV001
     FM222000 24005KT P6SM BKN200
     FM230200 VRB03KT P6SM BKN200=

USA.gov is the U.S. government's official web portal to all federal, state and local government web resources and services.